Time;durP1;ratioP1;P1;durP2;ratioP2;P2;SDS_P1;SDS_P2;PMS_P1;PMS_P2;Temp;Humidity;BMP_temperature;BMP_pressure;BME280_temperature;BME280_humidity;BME280_pressure;Samples;Min_cycle;Max_cycle;Signal;HPM_P1;HPM_P2
2023/02/08 00:02:14;;;;;;;24.35;14.82;;;;;;;;;;6157155;28;20051;-66
2023/02/08 00:05:16;;;;;;;24.35;13.82;;;;;;;;;;6159966;28;20059;-65
2023/02/08 00:08:18;;;;;;;24.50;14.10;;;;;;;;;;6156343;28;20047;-66
2023/02/08 00:11:19;;;;;;;26.90;14.18;;;;;;;;;;6156884;28;20142;-66
2023/02/08 00:14:21;;;;;;;26.75;14.50;;;;;;;;;;6159128;28;20050;-65
2023/02/08 00:17:24;;;;;;;25.52;14.70;;;;;;;;;;6158378;28;20134;-65
2023/02/08 00:20:26;;;;;;;31.30;15.45;;;;;;;;;;6152296;28;20066;-65
2023/02/08 00:23:28;;;;;;;27.17;14.52;;;;;;;;;;6157640;28;20051;-65
2023/02/08 00:26:29;;;;;;;27.75;14.70;;;;;;;;;;6151555;28;20054;-65
2023/02/08 00:29:31;;;;;;;27.30;14.15;;;;;;;;;;6155038;28;20212;-65
2023/02/08 00:32:34;;;;;;;24.95;14.52;;;;;;;;;;6161172;28;20050;-65
2023/02/08 00:35:36;;;;;;;27.60;14.10;;;;;;;;;;6158627;28;20062;-65
2023/02/08 00:38:38;;;;;;;24.48;13.80;;;;;;;;;;6159622;28;20350;-65
2023/02/08 00:41:39;;;;;;;25.80;14.60;;;;;;;;;;6156458;28;22051;-66
2023/02/08 00:44:41;;;;;;;26.50;14.70;;;;;;;;;;6157991;28;20142;-66
2023/02/08 00:47:44;;;;;;;28.73;14.02;;;;;;;;;;6161540;28;20054;-65
2023/02/08 00:50:57;;;;;;;25.13;14.32;;;;;;;;;;6159143;28;20062;-65
2023/02/08 00:53:58;;;;;;;24.92;13.25;;;;;;;;;;6159247;28;20055;-65
2023/02/08 00:57:00;;;;;;;28.35;14.48;;;;;;;;;;6161028;28;20057;-65
2023/02/08 01:00:03;;;;;;;29.98;15.02;;;;;;;;;;6155314;28;20054;-66
2023/02/08 01:03:06;;;;;;;26.52;13.85;;;;;;;;;;6157689;28;20547;-65
2023/02/08 01:06:10;;;;;;;27.10;14.50;;;;;;;;;;6160146;28;20082;-65
2023/02/08 01:09:11;;;;;;;25.90;13.82;;;;;;;;;;6157253;28;20063;-68
2023/02/08 01:12:13;;;;;;;25.95;14.45;;;;;;;;;;6150209;28;20063;-65
2023/02/08 01:15:14;;;;;;;27.15;14.38;;;;;;;;;;6157007;28;20066;-65
2023/02/08 01:18:18;;;;;;;26.65;14.27;;;;;;;;;;6151986;28;20051;-65
2023/02/08 01:21:20;;;;;;;25.33;14.35;;;;;;;;;;6149377;28;20125;-66
2023/02/08 01:24:22;;;;;;;23.50;13.40;;;;;;;;;;6160282;28;20055;-65
2023/02/08 01:27:24;;;;;;;27.77;14.23;;;;;;;;;;6155705;28;20063;-65
2023/02/08 01:30:25;;;;;;;28.33;14.38;;;;;;;;;;6158465;28;20346;-65
2023/02/08 01:33:28;;;;;;;25.45;14.50;;;;;;;;;;6158735;28;20063;-65
2023/02/08 01:36:31;;;;;;;28.45;14.48;;;;;;;;;;6157487;28;20050;-65
2023/02/08 01:39:32;;;;;;;24.98;13.93;;;;;;;;;;6160040;28;20047;-65
2023/02/08 01:42:34;;;;;;;26.02;14.93;;;;;;;;;;6157504;28;20110;-65
2023/02/08 01:45:36;;;;;;;33.47;15.07;;;;;;;;;;6156898;28;20059;-65
2023/02/08 01:48:40;;;;;;;27.05;14.32;;;;;;;;;;6154625;28;20055;-65
2023/02/08 01:51:42;;;;;;;;;;;;;;;;;;6157205;28;20065;-65
2023/02/08 01:54:48;;;;;;;32.35;15.32;;;;;;;;;;6158492;28;19926;-66
2023/02/08 01:57:52;;;;;;;30.88;15.55;;;;;;;;;;6159210;28;20058;-65
2023/02/08 02:00:54;;;;;;;27.88;15.43;;;;;;;;;;6155072;28;20047;-66
2023/02/08 02:03:58;;;;;;;28.30;15.43;;;;;;;;;;6155906;28;20334;-65
2023/02/08 02:07:00;;;;;;;29.92;14.93;;;;;;;;;;6157665;28;20051;-65
2023/02/08 02:10:05;;;;;;;29.88;14.30;;;;;;;;;;6155834;28;20051;-65
2023/02/08 02:13:09;;;;;;;26.98;15.52;;;;;;;;;;6156026;28;20059;-65
2023/02/08 02:16:11;;;;;;;28.77;15.27;;;;;;;;;;6162778;28;20055;-65
2023/02/08 02:19:20;;;;;;;26.20;14.82;;;;;;;;;;6159400;28;20055;-65
2023/02/08 02:23:10;;;;;;;29.13;15.57;;;;;;;;;;6157892;28;20054;-65
2023/02/08 02:26:42;;;;;;;28.65;15.30;;;;;;;;;;6087020;29;20060;-65
2023/02/08 02:30:34;;;;;;;27.92;14.80;;;;;;;;;;6086173;29;20147;-65
2023/02/08 02:33:46;;;;;;;32.13;14.55;;;;;;;;;;6085447;29;20100;-66
2023/02/08 02:36:52;;;;;;;29.33;14.95;;;;;;;;;;6090115;29;20044;-65
2023/02/08 02:40:00;;;;;;;28.27;15.38;;;;;;;;;;6087908;29;20056;-65
2023/02/08 02:46:39;;;;;;;29.77;14.50;;;;;;;;;;6086882;29;20060;-65
2023/02/08 02:49:48;;;;;;;31.70;16.55;;;;;;;;;;6086029;29;20057;-65
2023/02/08 02:52:55;;;;;;;27.08;14.02;;;;;;;;;;6084381;29;20105;-65
2023/02/08 02:56:07;;;;;;;27.17;14.52;;;;;;;;;;6079970;29;20335;-66
2023/02/08 02:59:11;;;;;;;27.77;14.85;;;;;;;;;;6074578;29;20067;-65
2023/02/08 03:02:13;;;;;;;31.23;14.77;;;;;;;;;;6140143;28;20394;-65
2023/02/08 03:05:16;;;;;;;32.55;15.45;;;;;;;;;;6157326;28;20327;-65
2023/02/08 03:08:27;;;;;;;28.10;14.93;;;;;;;;;;6155177;28;20055;-66
2023/02/08 03:11:31;;;;;;;28.15;15.15;;;;;;;;;;6154268;28;20059;-65
2023/02/08 03:14:35;;;;;;;30.50;15.10;;;;;;;;;;6158022;28;20066;-65
2023/02/08 03:17:41;;;;;;;;;;;;;;;;;;6156590;28;20125;-65
2023/02/08 03:20:49;;;;;;;27.13;13.80;;;;;;;;;;6157253;28;19926;-65
2023/02/08 03:23:59;;;;;;;25.15;15.15;;;;;;;;;;6159268;28;20208;-65
2023/02/08 03:27:04;;;;;;;25.80;14.00;;;;;;;;;;6158204;28;20385;-65
2023/02/08 03:30:12;;;;;;;31.08;13.50;;;;;;;;;;6159672;28;20047;-66
2023/02/08 03:33:16;;;;;;;26.40;14.98;;;;;;;;;;6161002;28;20055;-65
2023/02/08 03:36:22;;;;;;;26.25;14.75;;;;;;;;;;6162672;28;20058;-65
2023/02/08 03:39:26;;;;;;;25.58;15.27;;;;;;;;;;6159990;28;20067;-65
2023/02/08 03:42:30;;;;;;;23.95;14.13;;;;;;;;;;6158597;28;20051;-65
2023/02/08 03:45:36;;;;;;;28.50;15.73;;;;;;;;;;6158210;28;20130;-66
2023/02/08 03:48:40;;;;;;;25.40;13.77;;;;;;;;;;6159749;28;20114;-65
2023/02/08 03:51:43;;;;;;;;;;;;;;;;;;6157342;28;20047;-65
2023/02/08 03:54:48;;;;;;;29.27;13.93;;;;;;;;;;6160105;28;19933;-65
2023/02/08 03:57:53;;;;;;;27.85;14.88;;;;;;;;;;6159286;28;20097;-65
2023/02/08 04:00:55;;;;;;;;;;;;;;;;;;6157548;28;20058;-65
2023/02/08 04:03:57;;;;;;;29.80;15.00;;;;;;;;;;6159297;28;19941;-65
2023/02/08 04:07:00;;;;;;;29.23;15.35;;;;;;;;;;6161703;28;20369;-66
2023/02/08 04:10:02;;;;;;;31.45;15.45;;;;;;;;;;6156620;28;20153;-65
2023/02/08 04:13:04;;;;;;;28.63;16.05;;;;;;;;;;6158873;28;20123;-65
2023/02/08 04:16:06;;;;;;;28.00;16.13;;;;;;;;;;6160242;28;20089;-65
2023/02/08 04:19:08;;;;;;;27.85;15.75;;;;;;;;;;6159291;28;20058;-65
2023/02/08 04:22:11;;;;;;;32.15;16.15;;;;;;;;;;6157598;28;20059;-65
2023/02/08 04:25:13;;;;;;;30.75;16.52;;;;;;;;;;6158883;28;20272;-65
2023/02/08 04:28:14;;;;;;;27.92;16.38;;;;;;;;;;6156203;28;20134;-65
2023/02/08 04:31:16;;;;;;;30.63;15.82;;;;;;;;;;6160826;28;20058;-65
2023/02/08 04:34:19;;;;;;;26.42;14.48;;;;;;;;;;6159852;28;20059;-65
2023/02/08 04:37:21;;;;;;;27.77;15.32;;;;;;;;;;6155349;28;20073;-65
2023/02/08 04:40:23;;;;;;;27.80;14.32;;;;;;;;;;6156213;28;20047;-65
2023/02/08 04:43:25;;;;;;;27.45;15.63;;;;;;;;;;6157703;28;20224;-66
2023/02/08 04:46:26;;;;;;;24.60;15.10;;;;;;;;;;6160248;28;20346;-65
2023/02/08 04:49:28;;;;;;;24.63;14.50;;;;;;;;;;6157185;28;20145;-66
2023/02/08 04:52:31;;;;;;;26.85;14.88;;;;;;;;;;6158205;28;20051;-65
2023/02/08 04:55:33;;;;;;;28.23;15.70;;;;;;;;;;6162415;28;20089;-65
2023/02/08 04:58:35;;;;;;;26.55;15.73;;;;;;;;;;6157472;28;20051;-65
2023/02/08 05:01:37;;;;;;;29.83;15.50;;;;;;;;;;6156672;28;20054;-65
2023/02/08 05:04:38;;;;;;;31.70;16.08;;;;;;;;;;6160515;28;20138;-65
2023/02/08 05:07:41;;;;;;;28.50;15.82;;;;;;;;;;6156349;28;20680;-65
2023/02/08 05:10:44;;;;;;;25.40;15.02;;;;;;;;;;6154967;28;20051;-65
2023/02/08 05:13:46;;;;;;;30.95;15.70;;;;;;;;;;6156504;28;20323;-65
2023/02/08 05:16:48;;;;;;;25.92;15.30;;;;;;;;;;6159499;28;20047;-65
2023/02/08 05:19:49;;;;;;;33.85;16.10;;;;;;;;;;6157440;28;20066;-65
2023/02/08 05:22:52;;;;;;;28.02;15.93;;;;;;;;;;6155442;28;20061;-65
2023/02/08 05:25:54;;;;;;;27.60;15.45;;;;;;;;;;6155011;28;20098;-65
2023/02/08 05:28:56;;;;;;;26.52;15.07;;;;;;;;;;6157838;28;20055;-65
2023/02/08 05:31:57;;;;;;;27.52;15.13;;;;;;;;;;6158174;28;20066;-65
2023/02/08 05:34:59;;;;;;;31.63;15.88;;;;;;;;;;6159451;28;20158;-65
2023/02/08 05:38:02;;;;;;;30.00;16.60;;;;;;;;;;6156645;28;20055;-66
2023/02/08 05:41:04;;;;;;;30.05;16.63;;;;;;;;;;6157447;28;20061;-65
2023/02/08 05:44:05;;;;;;;30.83;15.30;;;;;;;;;;6155433;28;20219;-65
2023/02/08 05:47:07;;;;;;;31.73;16.35;;;;;;;;;;6156468;28;20070;-65
2023/02/08 05:50:09;;;;;;;28.67;15.43;;;;;;;;;;6155797;28;20389;-65
2023/02/08 05:53:12;;;;;;;33.58;16.83;;;;;;;;;;6156080;28;20055;-65
2023/02/08 05:56:14;;;;;;;32.10;16.60;;;;;;;;;;6158942;28;20077;-65
2023/02/08 05:59:16;;;;;;;31.33;17.35;;;;;;;;;;6158913;28;20059;-65
2023/02/08 06:02:17;;;;;;;28.50;17.63;;;;;;;;;;6150483;28;20055;-69
2023/02/08 06:05:19;;;;;;;29.95;16.40;;;;;;;;;;6154367;28;20055;-64
2023/02/08 06:08:22;;;;;;;30.30;17.10;;;;;;;;;;6159876;28;20156;-65
2023/02/08 06:11:23;;;;;;;28.17;15.68;;;;;;;;;;6153118;28;20086;-67
2023/02/08 06:14:25;;;;;;;24.70;16.10;;;;;;;;;;6152795;28;20106;-67
2023/02/08 06:17:27;;;;;;;31.15;16.05;;;;;;;;;;6155438;28;20063;-65
2023/02/08 06:20:28;;;;;;;33.05;17.50;;;;;;;;;;6158042;28;20547;-69
2023/02/08 06:23:31;;;;;;;32.55;16.95;;;;;;;;;;6158389;28;20258;-67
2023/02/08 06:26:33;;;;;;;37.63;16.85;;;;;;;;;;6153324;28;20117;-68
2023/02/08 06:29:35;;;;;;;33.00;17.13;;;;;;;;;;6153591;28;20055;-66
2023/02/08 06:32:36;;;;;;;33.30;17.05;;;;;;;;;;6152485;28;20055;-66
2023/02/08 06:35:38;;;;;;;39.08;17.42;;;;;;;;;;6154321;28;20066;-66
2023/02/08 06:38:42;;;;;;;30.92;16.90;;;;;;;;;;6158566;28;20043;-66
2023/02/08 06:41:43;;;;;;;34.65;16.90;;;;;;;;;;6153749;28;20059;-66
2023/02/08 06:44:46;;;;;;;37.38;18.55;;;;;;;;;;6159352;28;20066;-65
2023/02/08 06:47:48;;;;;;;36.85;17.40;;;;;;;;;;6158373;28;20066;-65
2023/02/08 06:50:52;;;;;;;35.55;16.67;;;;;;;;;;6155529;28;20055;-66
2023/02/08 06:53:55;;;;;;;39.80;17.92;;;;;;;;;;6155516;28;20055;-65
2023/02/08 06:56:56;;;;;;;36.78;16.85;;;;;;;;;;6160409;28;20351;-66
2023/02/08 06:59:58;;;;;;;30.65;17.23;;;;;;;;;;6159171;28;20327;-66
2023/02/08 07:03:00;;;;;;;34.47;17.90;;;;;;;;;;6159232;28;20062;-66
2023/02/08 07:06:02;;;;;;;36.28;17.40;;;;;;;;;;6159811;28;20075;-67
2023/02/08 07:09:05;;;;;;;38.70;17.90;;;;;;;;;;6161822;28;20055;-66
2023/02/08 07:12:07;;;;;;;33.70;17.63;;;;;;;;;;6158250;28;20055;-67
2023/02/08 07:15:12;;;;;;;42.17;19.13;;;;;;;;;;6156931;28;20069;-67
2023/02/08 07:18:13;;;;;;;33.40;17.00;;;;;;;;;;6156148;28;20302;-65
2023/02/08 07:21:15;;;;;;;36.83;17.63;;;;;;;;;;6159116;28;20047;-66
2023/02/08 07:24:18;;;;;;;33.40;17.63;;;;;;;;;;6157092;28;20137;-65
2023/02/08 07:27:20;;;;;;;33.38;17.25;;;;;;;;;;6157965;28;20106;-66
2023/02/08 07:30:22;;;;;;;39.20;19.50;;;;;;;;;;6160572;28;20062;-65
2023/02/08 07:33:24;;;;;;;38.13;18.45;;;;;;;;;;6160702;28;20067;-65
2023/02/08 07:36:26;;;;;;;41.50;17.65;;;;;;;;;;6157236;28;20055;-65
2023/02/08 07:39:30;;;;;;;35.25;17.17;;;;;;;;;;6158731;28;20358;-65
2023/02/08 07:42:33;;;;;;;26.10;16.55;;;;;;;;;;6161368;28;20395;-65
2023/02/08 07:45:37;;;;;;;30.88;17.52;;;;;;;;;;6159032;28;20327;-65
2023/02/08 07:48:39;;;;;;;39.20;17.80;;;;;;;;;;6159460;28;20254;-65
2023/02/08 07:51:41;;;;;;;30.23;17.73;;;;;;;;;;6161690;28;20065;-65
2023/02/08 07:54:44;;;;;;;32.83;16.58;;;;;;;;;;6158890;28;20067;-65
2023/02/08 07:57:46;;;;;;;31.40;17.55;;;;;;;;;;6161795;28;20129;-65
2023/02/08 08:00:48;;;;;;;29.65;16.90;;;;;;;;;;6158211;28;20098;-65
2023/02/08 08:03:50;;;;;;;28.77;16.75;;;;;;;;;;6159534;28;20151;-65
2023/02/08 08:06:52;;;;;;;28.33;16.05;;;;;;;;;;6159880;28;20058;-65
2023/02/08 08:09:55;;;;;;;27.70;16.83;;;;;;;;;;6159050;28;20047;-65
2023/02/08 08:12:57;;;;;;;28.30;16.80;;;;;;;;;;6160724;28;20062;-65
2023/02/08 08:15:58;;;;;;;30.20;16.10;;;;;;;;;;6158575;28;20050;-65
2023/02/08 08:19:00;;;;;;;28.55;16.60;;;;;;;;;;6160654;28;20055;-65
2023/02/08 08:22:02;;;;;;;29.60;15.15;;;;;;;;;;6161291;28;20110;-65
2023/02/08 08:25:05;;;;;;;23.90;14.90;;;;;;;;;;6159430;28;20051;-65
2023/02/08 08:28:07;;;;;;;31.13;16.23;;;;;;;;;;6158210;28;20058;-65
2023/02/08 08:31:10;;;;;;;25.65;15.18;;;;;;;;;;6158020;28;20066;-66
2023/02/08 08:34:12;;;;;;;25.25;15.43;;;;;;;;;;6160196;28;20063;-66
2023/02/08 08:37:13;;;;;;;31.58;15.77;;;;;;;;;;6159424;28;20067;-65
2023/02/08 08:40:17;;;;;;;31.58;16.67;;;;;;;;;;6162473;28;20059;-65
2023/02/08 08:43:19;;;;;;;26.75;15.85;;;;;;;;;;6159393;28;20062;-65
2023/02/08 08:46:20;;;;;;;24.40;14.02;;;;;;;;;;6159891;28;20152;-65
2023/02/08 08:49:22;;;;;;;24.75;15.10;;;;;;;;;;6158593;28;20055;-65
2023/02/08 08:52:24;;;;;;;23.95;13.82;;;;;;;;;;6158235;28;20287;-65
2023/02/08 08:55:27;;;;;;;19.33;12.80;;;;;;;;;;6156859;28;20087;-67
2023/02/08 08:58:29;;;;;;;18.35;11.63;;;;;;;;;;6159844;28;20054;-66
2023/02/08 09:01:30;;;;;;;13.88;8.93;;;;;;;;;;6157765;28;20102;-65
2023/02/08 09:04:32;;;;;;;12.68;7.85;;;;;;;;;;6157329;28;20660;-66
2023/02/08 09:07:34;;;;;;;14.13;9.20;;;;;;;;;;6158994;28;20059;-67
2023/02/08 09:10:37;;;;;;;19.95;9.10;;;;;;;;;;6162677;28;20180;-66
2023/02/08 09:13:39;;;;;;;11.68;7.65;;;;;;;;;;6158446;28;20055;-66
2023/02/08 09:16:46;;;;;;;15.25;8.38;;;;;;;;;;6160213;28;20051;-65
2023/02/08 09:19:47;;;;;;;13.15;9.05;;;;;;;;;;6158741;28;20203;-66
2023/02/08 09:22:49;;;;;;;14.65;8.20;;;;;;;;;;6159897;28;20061;-66
2023/02/08 09:25:52;;;;;;;16.23;8.80;;;;;;;;;;6159127;28;20333;-66
2023/02/08 09:28:54;;;;;;;12.15;6.55;;;;;;;;;;6156222;28;20059;-66
2023/02/08 09:31:56;;;;;;;14.68;7.15;;;;;;;;;;6155950;28;20047;-66
2023/02/08 09:34:57;;;;;;;13.45;7.85;;;;;;;;;;6159946;28;20102;-66
2023/02/08 09:38:01;;;;;;;14.48;8.45;;;;;;;;;;6156130;28;20290;-65
2023/02/08 09:41:14;;;;;;;17.20;9.68;;;;;;;;;;6158021;28;20054;-66
2023/02/08 09:44:21;;;;;;;16.20;10.10;;;;;;;;;;6158503;28;20401;-65
2023/02/08 09:47:28;;;;;;;16.73;10.70;;;;;;;;;;6158590;28;20216;-66
2023/02/08 09:50:33;;;;;;;14.40;9.90;;;;;;;;;;6154126;28;20051;-66
2023/02/08 09:53:39;;;;;;;12.35;8.40;;;;;;;;;;6162148;28;20243;-66
2023/02/08 09:56:43;;;;;;;18.90;9.77;;;;;;;;;;6160083;28;20058;-66
2023/02/08 09:59:47;;;;;;;;;;;;;;;;;;6156975;28;20062;-66
2023/02/08 10:02:49;;;;;;;16.48;8.82;;;;;;;;;;6156275;28;20218;-65
2023/02/08 10:05:51;;;;;;;14.68;9.93;;;;;;;;;;6156680;28;20106;-65
2023/02/08 10:08:53;;;;;;;16.02;8.73;;;;;;;;;;6157885;28;20055;-66
2023/02/08 10:12:09;;;;;;;15.07;8.43;;;;;;;;;;6156494;28;20047;-66
2023/02/08 10:15:19;;;;;;;15.57;9.00;;;;;;;;;;6160062;28;20125;-66
2023/02/08 10:18:33;;;;;;;12.40;8.40;;;;;;;;;;6157595;28;20327;-66
2023/02/08 10:21:45;;;;;;;12.77;8.97;;;;;;;;;;6159551;28;21012;-66
2023/02/08 10:25:16;;;;;;;12.73;7.85;;;;;;;;;;6156894;28;20055;-65
2023/02/08 10:28:54;;;;;;;14.48;8.77;;;;;;;;;;6150519;28;20349;-66
2023/02/08 10:32:07;;;;;;;15.73;8.80;;;;;;;;;;6141848;28;20247;-66
2023/02/08 10:35:12;;;;;;;14.90;8.77;;;;;;;;;;6156187;28;20114;-66
2023/02/08 10:38:23;;;;;;;13.23;8.57;;;;;;;;;;6154361;28;20057;-66
2023/02/08 10:41:28;;;;;;;14.85;9.88;;;;;;;;;;6157600;28;20066;-65
2023/02/08 10:44:35;;;;;;;17.83;9.90;;;;;;;;;;6157254;28;20322;-66
2023/02/08 10:47:42;;;;;;;14.25;8.82;;;;;;;;;;6154076;28;20058;-66
2023/02/08 10:50:46;;;;;;;18.73;10.30;;;;;;;;;;6158254;28;20610;-67
2023/02/08 10:53:48;;;;;;;17.33;10.80;;;;;;;;;;6159282;28;20063;-66
2023/02/08 10:56:56;;;;;;;18.13;10.98;;;;;;;;;;6159461;28;20058;-66
2023/02/08 11:00:01;;;;;;;16.42;9.77;;;;;;;;;;6156129;28;20996;-67
2023/02/08 11:03:14;;;;;;;14.90;8.25;;;;;;;;;;6158589;28;20055;-66
2023/02/08 11:06:26;;;;;;;15.25;8.45;;;;;;;;;;6157594;28;20055;-66
2023/02/08 11:09:28;;;;;;;12.57;8.43;;;;;;;;;;6155357;28;20508;-66
2023/02/08 11:12:30;;;;;;;15.77;8.95;;;;;;;;;;6156366;28;20081;-66
2023/02/08 11:15:38;;;;;;;13.60;7.80;;;;;;;;;;6156057;28;20122;-66
2023/02/08 11:18:41;;;;;;;14.10;8.63;;;;;;;;;;6155551;28;20115;-66
2023/02/08 11:21:44;;;;;;;12.65;8.18;;;;;;;;;;6158749;28;20098;-66
2023/02/08 11:24:49;;;;;;;13.77;8.65;;;;;;;;;;6158037;28;20239;-65
2023/02/08 11:27:51;;;;;;;18.85;8.32;;;;;;;;;;6154709;28;21196;-66
2023/02/08 11:31:00;;;;;;;13.25;8.38;;;;;;;;;;6156664;28;20150;-66
2023/02/08 11:34:03;;;;;;;13.18;8.50;;;;;;;;;;6156096;28;20076;-66
2023/02/08 11:37:14;;;;;;;13.10;8.50;;;;;;;;;;6156766;28;20338;-66
2023/02/08 11:40:19;;;;;;;11.60;8.30;;;;;;;;;;6157704;28;20146;-66
2023/02/08 11:43:23;;;;;;;12.55;8.52;;;;;;;;;;6160085;28;20051;-66
2023/02/08 11:46:27;;;;;;;12.15;8.05;;;;;;;;;;6159334;28;20057;-65
2023/02/08 11:49:37;;;;;;;17.45;8.38;;;;;;;;;;6158765;28;20054;-66
2023/02/08 11:52:41;;;;;;;12.43;8.80;;;;;;;;;;6159531;28;20059;-67
2023/02/08 11:55:43;;;;;;;14.65;8.10;;;;;;;;;;6162661;28;20089;-65
2023/02/08 11:59:01;;;;;;;14.65;9.20;;;;;;;;;;6157545;28;20398;-67
2023/02/08 12:02:23;;;;;;;15.13;8.85;;;;;;;;;;6158347;28;20085;-65
2023/02/08 12:05:30;;;;;;;12.48;8.63;;;;;;;;;;6157394;28;20059;-66
2023/02/08 12:08:37;;;;;;;13.52;8.40;;;;;;;;;;6165327;28;20242;-65
2023/02/08 12:11:42;;;;;;;13.82;7.60;;;;;;;;;;6161257;28;20098;-66
2023/02/08 12:14:53;;;;;;;13.32;8.30;;;;;;;;;;6161303;28;20066;-66
2023/02/08 12:18:09;;;;;;;13.48;8.27;;;;;;;;;;6156862;28;20058;-68
2023/02/08 12:21:13;;;;;;;15.60;9.85;;;;;;;;;;6163612;28;20296;-66
2023/02/08 12:24:16;;;;;;;;;;;;;;;;;;6159693;28;20390;-66
2023/02/08 12:27:29;;;;;;;19.60;10.10;;;;;;;;;;6156836;28;19931;-66
2023/02/08 12:30:34;;;;;;;16.25;9.32;;;;;;;;;;6159958;28;20349;-66
2023/02/08 12:33:45;;;;;;;14.90;9.35;;;;;;;;;;6164320;28;20075;-66
2023/02/08 12:43:51;;;;;;;14.32;9.77;;;;;;;;;;6155243;28;20191;-68
2023/02/08 12:47:01;;;;;;;13.68;9.90;;;;;;;;;;6157759;28;20114;-66
2023/02/08 12:50:10;;;;;;;15.52;10.15;;;;;;;;;;6159001;28;20069;-66
2023/02/08 12:53:18;;;;;;;15.07;9.75;;;;;;;;;;6159602;28;20057;-67
2023/02/08 12:56:23;;;;;;;16.15;11.00;;;;;;;;;;6158809;28;20050;-66
2023/02/08 12:59:28;;;;;;;16.15;10.20;;;;;;;;;;6159348;28;20059;-66
2023/02/08 13:02:32;;;;;;;19.30;11.32;;;;;;;;;;6157137;28;20067;-68
2023/02/08 13:05:39;;;;;;;;;;;;;;;;;;6157095;28;20054;-66
2023/02/08 13:08:45;;;;;;;16.38;10.43;;;;;;;;;;6158779;28;19934;-66
2023/02/08 13:11:50;;;;;;;15.88;11.38;;;;;;;;;;6158413;28;20110;-66
2023/02/08 13:14:54;;;;;;;15.60;10.48;;;;;;;;;;6159603;28;20342;-67
2023/02/08 13:17:58;;;;;;;16.15;10.75;;;;;;;;;;6157324;28;20502;-65
2023/02/08 13:21:03;;;;;;;15.93;10.43;;;;;;;;;;6157551;28;20058;-65
2023/02/08 13:24:06;;;;;;;15.90;10.23;;;;;;;;;;6158511;28;20138;-66
2023/02/08 13:27:11;;;;;;;20.70;10.73;;;;;;;;;;6156496;28;20070;-65
2023/02/08 13:30:18;;;;;;;19.27;10.85;;;;;;;;;;6155729;28;20526;-67
2023/02/08 13:33:25;;;;;;;34.92;22.83;;;;;;;;;;6156919;28;20059;-69
2023/02/08 13:36:31;;;;;;;30.00;17.88;;;;;;;;;;6155553;28;20059;-69
2023/02/08 13:39:35;;;;;;;19.30;12.43;;;;;;;;;;6156394;28;20262;-70
2023/02/08 13:42:41;;;;;;;17.98;11.15;;;;;;;;;;6156198;28;20369;-66
2023/02/08 13:45:44;;;;;;;17.95;11.50;;;;;;;;;;6159275;28;20126;-66
2023/02/08 13:48:50;;;;;;;17.13;11.25;;;;;;;;;;6156584;28;20295;-66
2023/02/08 13:51:54;;;;;;;17.17;11.90;;;;;;;;;;6159366;28;20058;-66
2023/02/08 13:55:25;;;;;;;17.58;11.13;;;;;;;;;;6158205;28;20039;-66
2023/02/08 13:58:37;;;;;;;17.52;11.70;;;;;;;;;;6157616;28;20089;-66
2023/02/08 14:02:22;;;;;;;14.93;10.68;;;;;;;;;;6156370;28;20094;-66
2023/02/08 14:05:43;;;;;;;21.65;11.43;;;;;;;;;;6161171;28;20287;-66
2023/02/08 14:08:52;;;;;;;17.85;11.68;;;;;;;;;;6162293;28;20058;-66
2023/02/08 14:11:56;;;;;;;15.95;11.32;;;;;;;;;;6163520;28;20047;-66
2023/02/08 14:15:05;;;;;;;;;;;;;;;;;;6161877;28;20059;-66
2023/02/08 14:18:22;;;;;;;15.70;11.10;;;;;;;;;;6159346;28;19919;-66
2023/02/08 14:21:34;;;;;;;16.95;12.30;;;;;;;;;;6155905;28;20051;-67
2023/02/08 14:24:39;;;;;;;33.42;22.00;;;;;;;;;;6161250;28;20433;-68
2023/02/08 14:27:43;;;;;;;31.42;20.40;;;;;;;;;;6158082;28;20110;-69
2023/02/08 14:30:50;;;;;;;31.10;21.17;;;;;;;;;;6159035;28;20298;-67
2023/02/08 14:33:55;;;;;;;19.73;12.68;;;;;;;;;;6163034;28;20054;-66
2023/02/08 14:37:02;;;;;;;16.60;11.70;;;;;;;;;;6157453;28;20243;-65
2023/02/08 14:40:34;;;;;;;18.83;10.52;;;;;;;;;;6157733;28;20051;-66
2023/02/08 14:43:37;;;;;;;16.45;11.25;;;;;;;;;;6160066;28;20055;-66
2023/02/08 14:46:43;;;;;;;14.52;10.52;;;;;;;;;;6159863;28;20047;-67
2023/02/08 14:49:47;;;;;;;18.00;10.57;;;;;;;;;;6161260;28;20063;-65
2023/02/08 14:52:54;;;;;;;15.43;10.43;;;;;;;;;;6162463;28;20122;-66
2023/02/08 14:55:59;;;;;;;18.80;11.75;;;;;;;;;;6163760;28;20039;-68
2023/02/08 14:59:05;;;;;;;16.35;11.25;;;;;;;;;;6160979;28;20055;-64
2023/02/08 15:02:14;;;;;;;16.45;11.98;;;;;;;;;;6155796;28;20055;-67
2023/02/08 15:05:23;;;;;;;18.40;11.70;;;;;;;;;;6155216;28;20051;-67
2023/02/08 15:08:25;;;;;;;18.13;10.45;;;;;;;;;;6158679;28;20059;-67
2023/02/08 15:11:29;;;;;;;17.55;11.63;;;;;;;;;;6158948;28;20063;-66
2023/02/08 15:14:31;;;;;;;;;;;;;;;;;;6151572;28;20118;-67
2023/02/08 15:17:35;;;;;;;15.98;11.07;;;;;;;;;;6162756;28;19925;-67
2023/02/08 15:20:38;;;;;;;17.65;11.88;;;;;;;;;;6159927;28;20057;-66
2023/02/08 15:23:40;;;;;;;19.77;12.10;;;;;;;;;;6159735;28;20073;-66
2023/02/08 15:26:45;;;;;;;17.45;11.38;;;;;;;;;;6158613;28;20058;-66
2023/02/08 15:29:47;;;;;;;16.70;11.20;;;;;;;;;;6159742;28;20133;-66
2023/02/08 15:32:48;;;;;;;18.05;10.93;;;;;;;;;;6160541;28;20055;-64
2023/02/08 15:35:59;;;;;;;17.38;11.55;;;;;;;;;;6158845;28;20255;-65
2023/02/08 15:39:03;;;;;;;15.00;10.95;;;;;;;;;;6158502;28;20084;-65
2023/02/08 15:42:05;;;;;;;17.20;10.88;;;;;;;;;;6161756;28;20283;-65
2023/02/08 15:45:21;;;;;;;14.20;10.35;;;;;;;;;;6162279;28;20063;-65
2023/02/08 15:48:22;;;;;;;16.05;10.73;;;;;;;;;;6158271;28;20055;-64
2023/02/08 15:51:26;;;;;;;17.40;10.32;;;;;;;;;;6158403;28;20063;-65
2023/02/08 15:54:28;;;;;;;22.23;11.57;;;;;;;;;;6159771;28;20062;-65
2023/02/08 15:57:36;;;;;;;15.70;11.23;;;;;;;;;;6161861;28;20094;-66
2023/02/08 16:00:38;;;;;;;16.02;10.27;;;;;;;;;;6161383;28;20069;-66
2023/02/08 16:03:39;;;;;;;17.02;10.65;;;;;;;;;;6157871;28;20114;-65
2023/02/08 16:06:49;;;;;;;18.02;11.02;;;;;;;;;;6160041;28;20053;-66
2023/02/08 16:09:50;;;;;;;16.13;10.23;;;;;;;;;;6160054;28;20331;-65
2023/02/08 16:12:53;;;;;;;18.13;10.40;;;;;;;;;;6160359;28;20043;-65
2023/02/08 16:15:59;;;;;;;18.92;11.02;;;;;;;;;;6161327;28;20078;-65
2023/02/08 16:19:02;;;;;;;16.48;10.70;;;;;;;;;;6159914;28;20051;-66
2023/02/08 16:22:25;;;;;;;17.25;10.52;;;;;;;;;;6158806;28;20066;-66
2023/02/08 16:25:43;;;;;;;39.35;21.42;;;;;;;;;;6158578;28;20311;-66
2023/02/08 16:28:56;;;;;;;27.52;15.57;;;;;;;;;;6157624;28;20047;-66
2023/02/08 16:32:02;;;;;;;17.80;11.05;;;;;;;;;;6160430;28;20260;-65
2023/02/08 16:35:11;;;;;;;18.80;11.00;;;;;;;;;;6158443;28;20456;-64
2023/02/08 16:38:20;;;;;;;15.32;10.73;;;;;;;;;;6159547;28;20303;-65
2023/02/08 16:42:00;;;;;;;18.80;10.35;;;;;;;;;;6160626;28;20054;-64
2023/02/08 16:45:23;;;;;;;17.48;9.98;;;;;;;;;;6158126;28;20051;-65
2023/02/08 16:48:33;;;;;;;15.27;10.20;;;;;;;;;;6157352;28;20062;-64
2023/02/08 16:51:38;;;;;;;15.13;9.90;;;;;;;;;;6158098;28;20055;-64
2023/02/08 16:54:41;;;;;;;16.15;10.25;;;;;;;;;;6160074;28;20054;-65
2023/02/08 16:57:44;;;;;;;18.00;10.98;;;;;;;;;;6163596;28;20066;-65
2023/02/08 17:00:46;;;;;;;19.45;10.80;;;;;;;;;;6159770;28;20134;-64
2023/02/08 17:03:48;;;;;;;18.15;10.75;;;;;;;;;;6157362;28;20094;-65
2023/02/08 17:06:50;;;;;;;18.58;10.63;;;;;;;;;;6158994;28;20287;-64
2023/02/08 17:09:53;;;;;;;19.15;11.05;;;;;;;;;;6157908;28;20055;-64
2023/02/08 17:12:55;;;;;;;15.00;10.18;;;;;;;;;;6159114;28;20355;-65
2023/02/08 17:15:58;;;;;;;20.30;11.38;;;;;;;;;;6159037;28;20077;-64
2023/02/08 17:19:01;;;;;;;19.95;11.00;;;;;;;;;;6157867;28;20162;-65
2023/02/08 17:22:02;;;;;;;18.95;11.02;;;;;;;;;;6160402;28;20055;-65
2023/02/08 17:25:06;;;;;;;20.42;11.15;;;;;;;;;;6157437;28;20319;-64
2023/02/08 17:28:11;;;;;;;17.38;11.52;;;;;;;;;;6155344;28;20122;-65
2023/02/08 17:31:13;;;;;;;24.60;12.15;;;;;;;;;;6159073;28;20046;-64
2023/02/08 17:34:16;;;;;;;18.00;10.80;;;;;;;;;;6155611;28;20055;-65
2023/02/08 17:37:18;;;;;;;24.17;11.40;;;;;;;;;;6158937;28;20082;-64
2023/02/08 17:40:23;;;;;;;23.17;11.25;;;;;;;;;;6158070;28;20086;-64
2023/02/08 17:43:24;;;;;;;17.23;10.70;;;;;;;;;;6156432;28;20061;-65
2023/02/08 17:46:29;;;;;;;17.42;10.10;;;;;;;;;;6157800;28;20043;-65
2023/02/08 17:49:30;;;;;;;14.55;8.70;;;;;;;;;;6156330;28;20047;-65
2023/02/08 17:52:32;;;;;;;15.27;8.57;;;;;;;;;;6157535;28;20051;-64
2023/02/08 17:55:35;;;;;;;17.25;8.98;;;;;;;;;;6157759;28;20058;-65
2023/02/08 17:58:37;;;;;;;14.63;8.65;;;;;;;;;;6159928;28;20063;-65
2023/02/08 18:01:39;;;;;;;16.02;8.57;;;;;;;;;;6158129;28;20059;-65
2023/02/08 18:04:41;;;;;;;13.82;8.32;;;;;;;;;;6157788;28;20059;-65
2023/02/08 18:07:43;;;;;;;14.25;8.77;;;;;;;;;;6154349;28;20047;-64
2023/02/08 18:10:46;;;;;;;15.55;8.82;;;;;;;;;;6154617;28;20057;-65
2023/02/08 18:13:49;;;;;;;15.20;8.90;;;;;;;;;;6156169;28;20338;-65
2023/02/08 18:16:51;;;;;;;18.40;8.38;;;;;;;;;;6157556;28;20115;-65